createdAt,value
2019-03-17T14:10:13.503Z,28.20
2019-03-17T14:11:06.756Z,30.20
2019-03-17T14:12:06.961Z,27.20
2019-03-17T14:13:06.965Z,27.20
2019-03-17T14:14:06.965Z,27.00
2019-03-17T14:15:07.174Z,29.30
2019-03-17T14:16:06.644Z,29.20
2019-03-17T14:17:06.791Z,27.90
2019-03-17T14:18:07.193Z,28.60
2019-03-17T14:19:06.846Z,28.10
2019-03-17T14:20:06.805Z,22.90
2019-03-17T14:21:07.024Z,24.80
2019-03-17T14:22:06.703Z,24.30
2019-03-17T14:23:07.070Z,27.30
2019-03-17T14:24:06.603Z,23.60
2019-03-17T14:25:06.822Z,27.30
2019-03-17T14:26:06.700Z,23.80
2019-03-17T14:27:06.629Z,25.30
2019-03-17T14:28:06.606Z,25.30
2019-03-17T14:29:06.605Z,24.00
2019-03-17T14:30:07.652Z,23.40
2019-03-17T14:31:06.873Z,22.70
2019-03-17T14:32:06.633Z,24.00
2019-03-17T14:33:07.227Z,25.00
2019-03-17T14:34:06.416Z,24.40
2019-03-17T14:35:06.626Z,26.00
2019-03-17T14:36:06.493Z,24.20
2019-03-17T14:37:06.633Z,27.10
2019-03-17T14:38:06.693Z,26.90
2019-03-17T14:39:06.661Z,23.80
2019-03-17T14:40:06.643Z,23.80
2019-03-17T14:41:06.472Z,21.30
2019-03-17T14:42:06.765Z,26.30
2019-03-17T14:43:06.691Z,22.40
2019-03-17T14:44:06.700Z,23.50
2019-03-17T14:45:06.692Z,21.80
2019-03-17T14:46:06.689Z,22.70
2019-03-17T14:47:06.752Z,24.90
2019-03-17T14:48:06.866Z,23.70
2019-03-17T14:49:06.612Z,24.10
2019-03-17T14:50:06.734Z,20.20
2019-03-17T14:51:06.707Z,21.70
2019-03-17T14:52:06.744Z,19.10
2019-03-17T14:53:06.717Z,21.70
2019-03-17T14:54:07.015Z,22.40
2019-03-17T14:55:06.773Z,22.10
2019-03-17T14:56:06.963Z,20.00
2019-03-17T14:57:06.738Z,21.10
2019-03-17T14:58:06.915Z,21.60
2019-03-17T14:59:06.925Z,22.00
2019-03-17T15:00:06.814Z,20.40
2019-03-17T15:01:06.812Z,21.40
2019-03-17T15:02:07.546Z,20.90
2019-03-17T15:03:07.483Z,20.80
2019-03-17T15:04:07.695Z,21.70
2019-03-17T15:05:07.663Z,18.20
2019-03-17T15:06:07.496Z,17.90
2019-03-17T15:07:07.301Z,18.70
2019-03-17T15:08:07.507Z,20.30
2019-03-17T15:09:07.832Z,18.60
2019-03-17T15:10:07.720Z,18.60
2019-03-17T15:11:07.736Z,19.20
2019-03-17T15:12:07.732Z,16.00
2019-03-17T15:13:07.751Z,17.50
2019-03-17T15:14:07.755Z,18.90
2019-03-17T15:15:07.766Z,16.00
2019-03-17T15:16:07.662Z,17.70
2019-03-17T15:17:07.783Z,17.90
2019-03-17T15:18:07.572Z,16.20
2019-03-17T15:19:07.985Z,16.50
2019-03-17T15:20:07.385Z,18.60
2019-03-17T15:21:07.386Z,17.30
2019-03-17T15:22:07.816Z,19.50
2019-03-17T15:23:07.503Z,18.80
2019-03-17T15:24:07.406Z,14.90
2019-03-17T15:25:08.029Z,15.00
2019-03-17T15:26:07.818Z,18.10
2019-03-17T15:27:08.135Z,14.80
2019-03-17T15:28:07.633Z,16.60
2019-03-17T15:29:07.847Z,15.20
2019-03-17T15:30:07.857Z,15.60
2019-03-17T15:31:11.923Z,16.10
2019-03-17T15:32:07.862Z,14.50
2019-03-17T15:33:08.070Z,14.90
2019-03-17T15:34:08.084Z,16.60
2019-03-17T15:35:08.104Z,14.50
2019-03-17T15:36:07.759Z,14.40
2019-03-17T15:37:07.914Z,14.20
2019-03-17T15:38:07.684Z,14.60
2019-03-17T15:39:07.896Z,16.10
2019-03-17T15:40:07.915Z,15.60
2019-03-17T15:41:18.003Z,12.60
2019-03-17T15:42:07.723Z,15.80
2019-03-17T15:43:07.950Z,13.80
2019-03-17T15:44:08.144Z,14.30
2019-03-17T15:45:07.918Z,14.50
2019-03-17T15:46:07.945Z,13.50
2019-03-17T15:47:07.761Z,13.20
2019-03-17T15:48:07.758Z,13.20
2019-03-17T15:49:07.981Z,15.40
2019-03-17T15:50:07.859Z,12.30
2019-03-17T15:51:19.660Z,15.10
2019-03-17T15:52:07.986Z,13.70
2019-03-17T15:53:07.789Z,12.30
2019-03-17T15:54:07.789Z,10.50
2019-03-17T15:55:07.792Z,14.50
2019-03-17T15:56:07.816Z,12.20
2019-03-17T15:57:08.226Z,12.70
2019-03-17T15:58:07.826Z,12.30
2019-03-17T15:59:08.138Z,12.80
2019-03-17T16:00:08.047Z,12.60
2019-03-17T16:01:07.852Z,12.10
2019-03-17T16:02:07.849Z,13.70
2019-03-17T16:03:07.967Z,11.70
2019-03-17T16:04:07.648Z,14.60
2019-03-17T16:05:08.273Z,12.30
2019-03-17T16:06:08.071Z,11.80
2019-03-17T16:07:08.090Z,12.30
2019-03-17T16:08:08.083Z,11.50
2019-03-17T16:09:07.915Z,10.90
2019-03-17T16:10:07.897Z,11.90
2019-03-17T16:11:08.332Z,11.30
2019-03-17T16:12:07.691Z,11.10
2019-03-17T16:13:07.914Z,11.10
2019-03-17T16:14:07.513Z,10.90
2019-03-17T16:15:08.359Z,11.50
2019-03-17T16:16:07.520Z,10.30
2019-03-17T16:17:07.529Z,11.20
2019-03-17T16:18:07.539Z,9.00
2019-03-17T16:19:07.677Z,10.20
2019-03-17T16:20:07.349Z,12.00
2019-03-17T16:21:09.051Z,12.00
2019-03-17T16:22:07.761Z,11.30
2019-03-17T16:23:07.552Z,11.70
2019-03-17T16:24:07.328Z,10.70
2019-03-17T16:25:07.571Z,11.10
2019-03-17T16:26:07.605Z,9.50
2019-03-17T16:27:07.813Z,10.20
2019-03-17T16:28:07.802Z,9.40
2019-03-17T16:29:07.603Z,8.60
2019-03-17T16:30:07.346Z,8.90
2019-03-17T16:31:07.400Z,9.10
2019-03-17T16:32:07.835Z,10.70
2019-03-17T16:33:07.629Z,10.90
2019-03-17T16:34:07.832Z,10.30
2019-03-17T16:35:07.635Z,9.30
2019-03-17T16:36:07.851Z,12.30
2019-03-17T16:37:07.643Z,7.90
2019-03-17T16:38:07.393Z,11.00
2019-03-17T16:39:07.668Z,8.80
2019-03-17T16:40:07.469Z,8.50
2019-03-17T16:41:07.573Z,9.50
2019-03-17T16:42:07.475Z,8.90
2019-03-17T16:43:07.401Z,9.40
2019-03-17T16:44:07.494Z,7.30
2019-03-17T16:45:07.898Z,8.70
2019-03-17T16:46:07.401Z,9.10
2019-03-17T16:47:07.716Z,8.20
2019-03-17T16:48:07.282Z,7.90
2019-03-17T16:49:07.371Z,7.90
2019-03-17T16:50:07.618Z,9.50
2019-03-17T16:51:07.531Z,7.70
2019-03-17T16:52:07.943Z,8.00
2019-03-17T16:53:07.750Z,7.60
2019-03-17T16:54:07.758Z,8.30
2019-03-17T16:55:07.741Z,7.30
2019-03-17T16:56:07.542Z,7.70
2019-03-17T16:57:07.771Z,7.20
2019-03-17T16:58:07.575Z,8.20
2019-03-17T16:59:07.589Z,8.20
2019-03-17T17:00:07.593Z,7.80
2019-03-17T17:01:08.020Z,8.10
2019-03-17T17:02:07.803Z,7.30
2019-03-17T17:03:07.541Z,8.40
2019-03-17T17:04:07.813Z,8.10
2019-03-17T17:05:07.821Z,7.50
2019-03-17T17:06:08.062Z,7.30
2019-03-17T17:07:07.651Z,8.10
2019-03-17T17:08:07.862Z,8.80
2019-03-17T17:09:07.836Z,8.30
2019-03-17T17:10:07.591Z,9.20
2019-03-17T17:11:07.667Z,7.30
2019-03-17T17:12:07.454Z,8.00
2019-03-17T17:13:08.290Z,8.30
2019-03-17T17:14:07.871Z,7.40
2019-03-17T17:15:08.095Z,8.40
2019-03-17T17:16:07.839Z,6.60
2019-03-17T17:17:08.113Z,7.40
2019-03-17T17:18:07.914Z,7.10
2019-03-17T17:19:08.529Z,8.30
2019-03-17T17:20:08.118Z,6.60
2019-03-17T17:21:08.127Z,7.00
2019-03-17T17:22:07.929Z,7.90
2019-03-17T17:23:08.352Z,6.60
2019-03-17T17:24:07.932Z,5.70
2019-03-17T17:25:07.951Z,5.40
2019-03-17T17:26:07.311Z,6.60
2019-03-17T17:27:07.549Z,6.80
2019-03-17T17:28:07.980Z,6.00
2019-03-17T17:29:07.353Z,6.80
2019-03-17T17:30:07.992Z,5.50
2019-03-17T17:31:07.587Z,6.10
2019-03-17T17:32:07.401Z,6.30
2019-03-17T17:33:07.952Z,6.70
2019-03-17T17:34:08.210Z,5.60
2019-03-17T17:35:08.040Z,7.90
2019-03-17T17:36:08.214Z,7.30
2019-03-17T17:37:08.014Z,6.40
2019-03-17T17:38:07.611Z,5.20
2019-03-17T17:39:07.821Z,7.20
2019-03-17T17:40:08.039Z,5.50
2019-03-17T17:41:10.981Z,6.10
2019-03-17T17:42:09.851Z,5.70
2019-03-17T17:43:08.757Z,5.90
2019-03-17T17:44:07.868Z,5.20
2019-03-17T17:45:08.212Z,5.50
2019-03-17T17:46:07.674Z,6.20
2019-03-17T17:47:08.297Z,5.10
2019-03-17T17:48:08.102Z,4.30
2019-03-17T17:49:08.043Z,6.80
2019-03-17T17:50:08.312Z,4.10
2019-03-17T17:51:08.325Z,7.50
2019-03-17T17:52:08.113Z,5.20
2019-03-17T17:53:08.125Z,5.80
2019-03-17T17:54:08.552Z,5.70
2019-03-17T17:55:08.357Z,5.10
2019-03-17T17:56:08.142Z,4.80
2019-03-17T17:57:08.156Z,5.70
2019-03-17T17:58:08.154Z,5.80
2019-03-17T17:59:08.360Z,4.90
2019-03-17T18:00:08.172Z,4.60
2019-03-17T18:01:08.377Z,6.10
2019-03-17T18:02:08.805Z,5.50
2019-03-17T18:03:08.385Z,5.80
2019-03-17T18:04:08.392Z,5.10
2019-03-17T18:05:08.618Z,5.40
2019-03-17T18:06:08.613Z,4.30
2019-03-17T18:07:08.630Z,6.20
2019-03-17T18:08:08.221Z,5.00
2019-03-17T18:09:08.634Z,5.80
2019-03-17T18:10:08.451Z,5.70
2019-03-17T18:11:08.671Z,4.70
2019-03-17T18:12:20.099Z,5.20
2019-03-17T18:13:08.455Z,4.90
2019-03-17T18:14:08.672Z,5.10
2019-03-17T18:15:08.062Z,4.40
2019-03-17T18:16:08.672Z,5.10
2019-03-17T18:17:08.491Z,5.30
2019-03-17T18:18:08.679Z,5.30
2019-03-17T18:19:08.136Z,4.10
2019-03-17T18:20:08.492Z,4.60
2019-03-17T18:21:08.503Z,4.60
2019-03-17T18:22:10.018Z,5.60
2019-03-17T18:23:17.972Z,5.00
2019-03-17T18:24:08.721Z,5.30
2019-03-17T18:25:08.928Z,5.20
2019-03-17T18:26:08.532Z,5.20
2019-03-17T18:27:08.335Z,6.60
2019-03-17T18:28:07.899Z,5.70
2019-03-17T18:29:08.148Z,5.80
2019-03-17T18:30:08.085Z,5.40
2019-03-17T18:31:07.743Z,5.80
2019-03-17T18:32:07.933Z,5.20
2019-03-17T18:33:08.163Z,5.40
2019-03-17T18:34:07.982Z,5.60
2019-03-17T18:35:08.203Z,7.50
2019-03-17T18:36:07.967Z,5.40
2019-03-17T18:37:08.042Z,5.40
2019-03-17T18:38:07.986Z,6.20
2019-03-17T18:39:08.404Z,5.10
2019-03-17T18:40:07.833Z,4.70
2019-03-17T18:41:08.632Z,5.30
2019-03-17T18:42:07.784Z,5.60
2019-03-17T18:43:08.244Z,5.50
2019-03-17T18:44:07.736Z,5.20
2019-03-17T18:45:08.251Z,5.00
2019-03-17T18:46:08.262Z,4.80
